createdAt,value
2022-08-23T00:01:21.784Z,15.10
2022-08-23T00:03:53.681Z,15.20
2022-08-23T00:06:23.392Z,15.20
2022-08-23T00:08:53.113Z,15.20
2022-08-23T00:11:29.856Z,15.10
2022-08-23T00:14:00.106Z,15.00
2022-08-23T00:16:29.731Z,14.80
2022-08-23T00:18:57.945Z,14.80
2022-08-23T00:21:26.137Z,14.90
2022-08-23T00:23:54.135Z,15.10
2022-08-23T00:26:22.533Z,15.10
2022-08-23T00:28:51.076Z,15.20
2022-08-23T00:31:19.919Z,15.30
2022-08-23T00:33:49.240Z,15.40
2022-08-23T00:36:17.158Z,15.30
2022-08-23T00:38:45.064Z,15.10
2022-08-23T00:41:13.056Z,15.00
2022-08-23T00:44:00.575Z,14.90
2022-08-23T00:46:58.340Z,14.80
2022-08-23T00:49:29.075Z,14.80
2022-08-23T00:52:02.545Z,15.00
2022-08-23T00:54:33.184Z,14.90
2022-08-23T00:57:05.560Z,14.80
2022-08-23T00:59:33.742Z,14.70
2022-08-23T01:02:02.624Z,14.70
2022-08-23T01:04:38.482Z,14.50
2022-08-23T01:07:17.346Z,14.40
2022-08-23T01:09:48.327Z,14.40
2022-08-23T01:12:32.820Z,14.30
2022-08-23T01:15:03.805Z,14.30
2022-08-23T01:17:37.088Z,14.40
2022-08-23T01:20:10.583Z,14.50
2022-08-23T01:22:43.167Z,14.60
2022-08-23T01:25:16.827Z,14.60
2022-08-23T01:27:45.807Z,14.70
2022-08-23T01:30:16.986Z,14.60
2022-08-23T01:32:47.533Z,14.50
2022-08-23T01:35:16.827Z,14.40
2022-08-23T01:37:45.729Z,14.30
2022-08-23T01:40:16.158Z,14.20
2022-08-23T01:42:44.489Z,14.10
2022-08-23T01:45:14.641Z,14.00
2022-08-23T01:47:43.665Z,13.90
2022-08-23T01:50:13.110Z,13.80
2022-08-23T01:52:46.971Z,13.80
2022-08-23T01:55:17.575Z,13.70
2022-08-23T01:57:48.382Z,13.70
2022-08-23T02:00:17.662Z,13.70
2022-08-23T02:02:47.081Z,13.80
2022-08-23T02:05:18.928Z,13.80
2022-08-23T02:07:47.442Z,13.80
2022-08-23T02:10:17.020Z,13.70
2022-08-23T02:12:45.303Z,13.70
2022-08-23T02:15:13.682Z,13.70
2022-08-23T02:17:41.828Z,13.80
2022-08-23T02:20:10.665Z,14.00
2022-08-23T02:22:39.577Z,14.20
2022-08-23T02:25:08.774Z,14.20
2022-08-23T02:27:38.369Z,14.10
2022-08-23T02:30:12.895Z,14.00
2022-08-23T02:32:42.199Z,13.80
2022-08-23T02:35:10.807Z,13.90
2022-08-23T02:37:39.097Z,14.10
2022-08-23T02:40:08.430Z,14.20
2022-08-23T02:42:37.885Z,14.20
2022-08-23T02:45:08.414Z,14.20
2022-08-23T02:47:37.318Z,14.20
2022-08-23T02:50:06.523Z,14.20
2022-08-23T02:52:34.698Z,14.10
2022-08-23T02:55:02.686Z,14.00
2022-08-23T02:57:31.450Z,14.10
2022-08-23T03:00:01.056Z,14.10
2022-08-23T03:02:29.490Z,14.10
2022-08-23T03:04:57.512Z,14.10
2022-08-23T03:07:25.679Z,14.20
2022-08-23T03:09:53.625Z,14.20
2022-08-23T03:12:21.601Z,14.20
2022-08-23T03:14:51.247Z,14.00
2022-08-23T03:17:22.048Z,13.70
2022-08-23T03:19:50.323Z,13.70
2022-08-23T03:22:18.466Z,13.80
2022-08-23T03:24:46.666Z,13.80
2022-08-23T03:27:14.755Z,13.80
2022-08-23T03:29:42.844Z,13.70
2022-08-23T03:32:11.457Z,13.60
2022-08-23T03:34:44.822Z,13.40
2022-08-23T03:37:12.776Z,13.40
2022-08-23T03:39:40.873Z,13.40
2022-08-23T03:42:08.993Z,13.30
2022-08-23T03:44:37.065Z,13.30
2022-08-23T03:47:06.268Z,13.50
2022-08-23T03:49:34.288Z,13.60
2022-08-23T03:52:04.490Z,13.60
2022-08-23T03:54:32.523Z,13.50
2022-08-23T03:57:03.008Z,13.50
2022-08-23T03:59:32.943Z,13.60
2022-08-23T04:02:00.959Z,13.60
2022-08-23T04:04:29.091Z,13.50
2022-08-23T04:06:57.305Z,13.40
2022-08-23T04:09:26.596Z,13.20
2022-08-23T04:11:54.600Z,13.10
2022-08-23T04:14:22.719Z,13.00
2022-08-23T04:16:50.620Z,13.00
2022-08-23T04:19:18.677Z,12.90
2022-08-23T04:21:49.497Z,12.90
2022-08-23T04:24:18.980Z,12.90
2022-08-23T04:26:49.520Z,13.00
2022-08-23T04:29:33.618Z,13.00
2022-08-23T04:32:02.820Z,13.00
2022-08-23T04:34:34.794Z,13.10
2022-08-23T04:37:03.047Z,13.20
2022-08-23T04:39:51.885Z,13.30
2022-08-23T04:42:23.329Z,13.40
2022-08-23T04:44:51.342Z,13.50
2022-08-23T04:47:20.415Z,13.50
2022-08-23T04:49:48.456Z,13.40
2022-08-23T04:52:19.387Z,13.20
2022-08-23T04:54:47.804Z,13.20
2022-08-23T04:57:16.476Z,13.20
2022-08-23T04:59:45.769Z,13.30
2022-08-23T05:02:14.484Z,13.50
2022-08-23T05:04:42.483Z,13.70
2022-08-23T05:07:10.951Z,13.90
2022-08-23T05:09:38.877Z,14.30
2022-08-23T05:12:07.142Z,14.70
2022-08-23T05:14:35.107Z,15.10
2022-08-23T05:17:04.773Z,15.40
2022-08-23T05:19:32.709Z,15.80
2022-08-23T05:22:00.650Z,16.20
2022-08-23T05:24:28.646Z,16.50
2022-08-23T05:26:56.658Z,16.70
2022-08-23T05:29:24.683Z,16.80
2022-08-23T05:31:57.111Z,16.80
2022-08-23T05:34:26.580Z,17.00
2022-08-23T05:36:55.875Z,17.20
2022-08-23T05:39:32.822Z,17.50
2022-08-23T05:42:05.447Z,17.70
2022-08-23T05:44:36.441Z,17.90
2022-08-23T05:47:10.534Z,18.10
2022-08-23T05:49:41.181Z,18.30
2022-08-23T05:52:15.001Z,18.30
2022-08-23T05:54:43.052Z,18.50
2022-08-23T05:57:11.563Z,18.70
2022-08-23T05:59:41.762Z,19.00
2022-08-23T06:02:09.975Z,19.30
2022-08-23T06:04:38.185Z,19.50
2022-08-23T06:07:09.781Z,19.80
2022-08-23T06:09:37.964Z,20.10
2022-08-23T06:12:06.223Z,20.30
2022-08-23T06:14:34.194Z,20.60
2022-08-23T06:17:02.410Z,20.70
2022-08-23T06:19:30.363Z,20.90
2022-08-23T06:21:58.291Z,21.10
2022-08-23T06:24:27.664Z,21.30
2022-08-23T06:26:55.637Z,21.40
2022-08-23T06:29:23.738Z,21.60
2022-08-23T06:31:53.292Z,21.90
2022-08-23T06:34:23.769Z,22.20
2022-08-23T06:36:55.195Z,22.40
2022-08-23T06:39:25.495Z,22.60
2022-08-23T06:41:58.442Z,22.80
2022-08-23T06:44:27.322Z,22.90
2022-08-23T06:46:57.436Z,22.90
2022-08-23T06:49:27.660Z,22.90
2022-08-23T06:51:59.913Z,23.00
2022-08-23T06:54:31.367Z,23.10
2022-08-23T06:57:01.392Z,23.10
2022-08-23T06:59:29.915Z,23.30
2022-08-23T07:01:59.597Z,23.60
2022-08-23T07:04:29.895Z,23.90
2022-08-23T07:06:58.859Z,24.00
2022-08-23T07:09:27.360Z,24.00
2022-08-23T07:11:55.874Z,24.10
2022-08-23T07:14:25.871Z,24.20
2022-08-23T07:16:56.221Z,24.60
2022-08-23T07:19:28.903Z,24.90
2022-08-23T07:21:57.956Z,25.00
2022-08-23T07:24:30.635Z,25.10
2022-08-23T07:27:04.052Z,25.30
2022-08-23T07:29:33.487Z,25.60
2022-08-23T07:32:01.513Z,25.80
2022-08-23T07:34:30.025Z,25.90
2022-08-23T07:36:57.964Z,26.00
2022-08-23T07:39:26.445Z,26.40
2022-08-23T07:41:54.721Z,26.40
2022-08-23T07:44:26.421Z,26.60
2022-08-23T07:46:57.027Z,26.70
2022-08-23T07:49:29.378Z,26.80
2022-08-23T07:51:59.306Z,26.80
2022-08-23T07:54:28.421Z,26.90
2022-08-23T07:56:56.400Z,27.20
2022-08-23T07:59:24.436Z,27.50
2022-08-23T08:01:52.484Z,27.60
2022-08-23T08:04:21.842Z,27.80
2022-08-23T08:07:10.478Z,27.90
2022-08-23T08:09:40.422Z,28.00
2022-08-23T08:12:08.947Z,28.00
2022-08-23T08:14:37.358Z,28.10
2022-08-23T08:17:06.935Z,28.20
2022-08-23T08:19:36.195Z,28.50
2022-08-23T08:22:04.362Z,28.80
2022-08-23T08:24:32.325Z,28.90
2022-08-23T08:27:00.567Z,28.90
2022-08-23T08:29:29.417Z,28.90
2022-08-23T08:31:57.539Z,29.00
2022-08-23T08:34:25.698Z,29.30
2022-08-23T08:36:58.488Z,29.10
2022-08-23T08:39:30.313Z,29.10
2022-08-23T08:42:20.603Z,29.10
2022-08-23T08:44:52.320Z,29.50
2022-08-23T08:47:24.061Z,29.50
2022-08-23T08:49:58.848Z,29.70
2022-08-23T08:52:32.163Z,29.90
2022-08-23T08:55:06.665Z,29.70
2022-08-23T08:57:41.105Z,30.00
2022-08-23T09:00:13.365Z,30.00
2022-08-23T09:02:41.948Z,30.00
2022-08-23T09:05:14.608Z,30.10
2022-08-23T09:07:56.230Z,30.00
2022-08-23T09:10:44.361Z,30.10
2022-08-23T09:13:27.903Z,30.10
2022-08-23T09:16:04.048Z,30.60
2022-08-23T09:18:35.313Z,30.80
2022-08-23T09:21:07.788Z,30.60
2022-08-23T09:23:41.364Z,31.00
2022-08-23T09:26:22.089Z,31.20
2022-08-23T09:28:52.176Z,31.00
2022-08-23T09:31:39.129Z,31.00
2022-08-23T09:34:07.847Z,31.00
2022-08-23T09:36:38.346Z,31.00
2022-08-23T09:39:09.930Z,30.80
2022-08-23T09:41:39.933Z,31.00
2022-08-23T09:44:13.330Z,31.20
2022-08-23T09:46:43.594Z,31.20
2022-08-23T09:49:25.977Z,31.40
2022-08-23T09:51:56.857Z,31.80
2022-08-23T09:54:31.091Z,32.10
2022-08-23T09:57:01.921Z,32.20
2022-08-23T09:59:39.156Z,32.00
2022-08-23T10:02:16.601Z,32.00
2022-08-23T10:04:47.903Z,31.80
2022-08-23T10:07:27.155Z,32.00
2022-08-23T10:10:15.974Z,32.10
2022-08-23T10:12:43.925Z,32.10
2022-08-23T10:15:12.244Z,32.00
2022-08-23T10:17:50.949Z,32.00
2022-08-23T10:20:32.490Z,32.10
2022-08-23T10:23:13.633Z,32.10
2022-08-23T10:25:48.291Z,31.90
2022-08-23T10:28:40.366Z,32.00
2022-08-23T10:31:15.464Z,32.30
2022-08-23T10:33:50.039Z,31.90
2022-08-23T10:36:23.950Z,31.80
2022-08-23T10:38:57.796Z,32.10
2022-08-23T10:41:44.456Z,32.40
2022-08-23T10:44:26.575Z,32.40
2022-08-23T10:47:06.117Z,32.90
2022-08-23T10:49:37.015Z,33.40
2022-08-23T10:52:08.779Z,33.90
2022-08-23T10:54:48.850Z,33.60
2022-08-23T10:57:21.734Z,33.70
2022-08-23T10:59:53.609Z,33.80
2022-08-23T11:02:29.783Z,33.90
2022-08-23T11:05:05.725Z,33.80
2022-08-23T11:07:36.902Z,33.70
2022-08-23T11:10:17.286Z,33.60
2022-08-23T11:12:58.352Z,33.40
2022-08-23T11:15:38.358Z,34.00
2022-08-23T11:18:33.564Z,33.70
2022-08-23T11:21:06.493Z,33.70
2022-08-23T11:23:47.801Z,34.10
2022-08-23T11:27:06.378Z,34.10
2022-08-23T11:29:39.392Z,34.30
2022-08-23T11:32:29.924Z,34.30
2022-08-23T11:35:05.676Z,34.40
2022-08-23T11:38:03.833Z,34.60
2022-08-23T11:41:01.016Z,34.60
2022-08-23T11:43:34.447Z,34.30
2022-08-23T11:46:34.597Z,34.40
2022-08-23T11:49:44.073Z,34.70
2022-08-23T11:52:23.065Z,35.30
2022-08-23T11:55:24.675Z,35.70
2022-08-23T11:58:15.542Z,35.70
2022-08-23T12:00:57.554Z,35.40
2022-08-23T12:03:34.026Z,34.90
2022-08-23T12:06:12.688Z,34.70
2022-08-23T12:08:54.769Z,34.50
2022-08-23T12:11:24.508Z,34.20
2022-08-23T12:13:59.827Z,34.00
2022-08-23T12:16:49.582Z,34.40
2022-08-23T12:19:31.432Z,34.10
2022-08-23T12:22:06.359Z,34.30
2022-08-23T12:24:44.474Z,34.90
2022-08-23T12:27:26.615Z,35.20
2022-08-23T12:30:00.334Z,35.20
2022-08-23T12:32:38.747Z,35.40
2022-08-23T12:35:33.604Z,35.30
2022-08-23T12:38:07.576Z,34.70
2022-08-23T12:40:42.069Z,34.60
2022-08-23T12:43:19.826Z,34.30
2022-08-23T12:45:53.320Z,34.00
2022-08-23T12:48:25.075Z,33.80
2022-08-23T12:50:59.945Z,33.70
2022-08-23T12:53:30.742Z,34.10
2022-08-23T12:56:03.258Z,34.40
2022-08-23T12:58:33.885Z,34.60
2022-08-23T13:01:04.904Z,34.90
2022-08-23T13:03:37.144Z,35.30
2022-08-23T13:06:11.833Z,35.50
2022-08-23T13:08:50.993Z,35.40
2022-08-23T13:11:21.822Z,35.60
2022-08-23T13:13:50.234Z,35.50
2022-08-23T13:16:32.444Z,35.40
2022-08-23T13:19:16.600Z,35.20
2022-08-23T13:21:46.365Z,34.90
2022-08-23T13:24:38.721Z,34.80
2022-08-23T13:27:35.354Z,34.70
2022-08-23T13:30:24.334Z,34.20
2022-08-23T13:33:13.932Z,33.80
2022-08-23T13:35:44.692Z,33.50
2022-08-23T13:38:24.580Z,33.40
2022-08-23T13:41:04.463Z,33.30
2022-08-23T13:43:36.894Z,33.40
2022-08-23T13:46:15.593Z,33.40
2022-08-23T13:48:49.119Z,33.70
2022-08-23T13:51:37.034Z,34.00
2022-08-23T13:54:08.887Z,34.30
2022-08-23T13:56:39.073Z,34.70
2022-08-23T13:59:23.272Z,34.80
2022-08-23T14:01:55.209Z,34.60
2022-08-23T14:04:23.326Z,34.30
2022-08-23T14:06:51.356Z,34.10
2022-08-23T14:09:20.799Z,34.60
2022-08-23T14:11:55.474Z,34.20
2022-08-23T14:14:24.388Z,33.80
2022-08-23T14:16:54.345Z,33.70
2022-08-23T14:22:10.580Z,33.70
2022-08-23T14:24:40.706Z,33.30
2022-08-23T14:27:10.063Z,32.90
2022-08-23T14:29:38.335Z,32.50
2022-08-23T14:32:06.650Z,32.20
2022-08-23T14:34:34.627Z,31.80
2022-08-23T14:39:52.311Z,31.70
2022-08-23T14:42:23.085Z,31.80
2022-08-23T14:44:52.259Z,31.80
2022-08-23T14:47:20.248Z,31.90
2022-08-23T14:49:52.006Z,32.00
2022-08-23T14:52:22.245Z,32.10
2022-08-23T14:54:51.553Z,32.20
2022-08-23T14:57:19.610Z,32.00
2022-08-23T14:59:47.869Z,31.90
2022-08-23T15:02:24.253Z,31.80
2022-08-23T15:04:52.832Z,31.50
2022-08-23T15:07:21.047Z,31.10
2022-08-23T15:09:49.705Z,30.60
2022-08-23T15:15:12.514Z,30.10
2022-08-23T15:17:47.856Z,29.80
2022-08-23T15:20:16.483Z,29.70
2022-08-23T15:22:45.201Z,29.70
2022-08-23T15:25:25.835Z,29.70
2022-08-23T15:27:55.723Z,29.60
2022-08-23T15:30:25.179Z,29.40
2022-08-23T15:32:56.597Z,29.30
2022-08-23T15:35:38.209Z,29.20
2022-08-23T15:38:08.991Z,29.10
2022-08-23T15:40:37.058Z,29.00
2022-08-23T15:43:06.627Z,28.90
2022-08-23T15:45:35.042Z,28.80
2022-08-23T15:48:06.818Z,28.80
2022-08-23T15:50:35.971Z,28.80
2022-08-23T15:53:04.157Z,28.80
2022-08-23T15:55:33.817Z,28.90
2022-08-23T15:58:01.765Z,28.80
2022-08-23T16:00:31.948Z,28.80
2022-08-23T16:03:17.184Z,28.70
2022-08-23T16:05:50.936Z,28.70
2022-08-23T16:08:22.173Z,28.60
2022-08-23T16:10:50.360Z,28.60
2022-08-23T16:13:19.042Z,28.50
2022-08-23T16:15:48.367Z,28.50
2022-08-23T16:18:16.327Z,28.40
2022-08-23T16:20:44.898Z,28.40
2022-08-23T16:23:13.386Z,28.40
2022-08-23T16:25:42.145Z,28.40
2022-08-23T16:28:10.367Z,28.40
2022-08-23T16:30:38.377Z,28.30
2022-08-23T16:33:07.735Z,28.40
2022-08-23T16:35:35.758Z,28.40
2022-08-23T16:38:03.775Z,28.40
2022-08-23T16:40:31.757Z,28.40
2022-08-23T16:43:00.421Z,28.40
2022-08-23T16:45:28.580Z,28.40
2022-08-23T16:47:56.547Z,28.40
2022-08-23T16:50:26.077Z,28.30
2022-08-23T16:52:54.047Z,28.30
2022-08-23T16:55:22.457Z,28.20
2022-08-23T16:57:50.448Z,28.20
2022-08-23T17:00:19.002Z,28.20
2022-08-23T17:02:47.161Z,28.20
2022-08-23T17:05:17.276Z,28.20
2022-08-23T17:07:47.810Z,28.20
2022-08-23T17:10:17.800Z,28.10
2022-08-23T17:12:48.713Z,28.10
2022-08-23T17:15:20.197Z,28.10
2022-08-23T17:17:48.576Z,28.00
2022-08-23T17:20:18.261Z,27.90
2022-08-23T17:22:49.387Z,27.90
2022-08-23T17:25:18.356Z,27.80
2022-08-23T17:27:47.401Z,27.80
2022-08-23T17:30:18.365Z,27.70
2022-08-23T17:32:47.710Z,27.60
2022-08-23T17:35:22.828Z,27.60
2022-08-23T17:37:52.891Z,27.50
2022-08-23T17:40:24.373Z,27.40
2022-08-23T17:42:52.772Z,27.30
2022-08-23T17:45:20.842Z,27.20
2022-08-23T17:47:49.322Z,27.10
2022-08-23T17:50:19.286Z,26.90
2022-08-23T17:52:47.270Z,26.80
2022-08-23T17:55:18.473Z,26.60
2022-08-23T17:57:48.307Z,26.40
2022-08-23T18:00:19.152Z,26.20
2022-08-23T18:02:47.446Z,26.10
2022-08-23T18:05:15.809Z,25.90
2022-08-23T18:07:43.843Z,25.80
2022-08-23T18:10:13.185Z,25.70
2022-08-23T18:12:42.901Z,25.60
2022-08-23T18:15:12.394Z,25.40
2022-08-23T18:17:41.419Z,25.30
2022-08-23T18:20:11.547Z,25.20
2022-08-23T18:22:40.209Z,25.10
2022-08-23T18:25:10.177Z,25.00
2022-08-23T18:27:55.522Z,24.80
2022-08-23T18:30:25.077Z,24.60
2022-08-23T18:32:53.104Z,24.50
2022-08-23T18:35:21.277Z,24.30
2022-08-23T18:37:49.280Z,24.20
2022-08-23T18:40:17.265Z,24.10
2022-08-23T18:42:45.421Z,23.90
2022-08-23T18:45:14.666Z,23.90
2022-08-23T18:47:44.231Z,23.80
2022-08-23T18:50:13.683Z,23.70
2022-08-23T18:52:41.971Z,23.60
2022-08-23T18:55:10.715Z,23.40
2022-08-23T18:57:39.258Z,23.30
2022-08-23T19:00:10.624Z,23.20
2022-08-23T19:02:38.566Z,23.10
2022-08-23T19:05:09.076Z,23.00
2022-08-23T19:07:37.013Z,22.90
2022-08-23T19:10:05.388Z,22.80
2022-08-23T19:12:33.296Z,22.80
2022-08-23T19:15:01.300Z,22.70
2022-08-23T19:17:29.319Z,22.60
2022-08-23T19:20:00.053Z,22.50
2022-08-23T19:22:29.735Z,22.50
2022-08-23T19:24:57.679Z,22.40
2022-08-23T19:27:25.815Z,22.30
2022-08-23T19:29:53.825Z,22.20
2022-08-23T19:32:22.207Z,22.20
2022-08-23T19:34:51.403Z,22.10
2022-08-23T19:37:22.933Z,22.00
2022-08-23T19:39:52.992Z,21.90
2022-08-23T19:42:21.501Z,21.90
2022-08-23T19:44:49.614Z,21.80
2022-08-23T19:47:20.330Z,21.60
2022-08-23T19:49:50.355Z,21.30
2022-08-23T19:52:18.293Z,21.10
2022-08-23T19:54:46.222Z,20.90
2022-08-23T19:57:15.525Z,21.00
2022-08-23T19:59:43.979Z,21.00
2022-08-23T20:02:13.936Z,20.90
2022-08-23T20:04:41.946Z,20.80
2022-08-23T20:07:10.089Z,20.60
2022-08-23T20:09:38.179Z,20.60
2022-08-23T20:12:06.457Z,20.60
2022-08-23T20:14:36.357Z,20.30
2022-08-23T20:17:07.301Z,20.20
2022-08-23T20:19:36.183Z,20.30
2022-08-23T20:22:18.846Z,20.20
2022-08-23T20:24:52.137Z,20.20
2022-08-23T20:27:25.447Z,20.30
2022-08-23T20:30:01.271Z,20.30
2022-08-23T20:32:29.779Z,20.40
2022-08-23T20:34:58.408Z,20.50
2022-08-23T20:37:26.377Z,20.60
2022-08-23T20:39:54.417Z,20.70
2022-08-23T20:42:22.395Z,20.70
2022-08-23T20:44:50.426Z,20.60
2022-08-23T20:47:19.895Z,20.60
2022-08-23T20:49:48.311Z,20.40
2022-08-23T20:52:16.693Z,20.50
2022-08-23T20:54:44.908Z,20.60
2022-08-23T20:57:13.085Z,20.60
2022-08-23T20:59:44.667Z,20.80
2022-08-23T21:02:13.124Z,20.80
2022-08-23T21:04:42.481Z,20.90
2022-08-23T21:07:10.578Z,20.90
2022-08-23T21:09:39.321Z,21.00
2022-08-23T21:12:07.692Z,21.00
2022-08-23T21:14:37.108Z,21.00
2022-08-23T21:17:05.053Z,21.10
2022-08-23T21:19:32.990Z,21.00
2022-08-23T21:22:02.238Z,20.90
2022-08-23T21:24:30.352Z,20.80
2022-08-23T21:26:58.386Z,20.50
2022-08-23T21:29:26.333Z,20.20
2022-08-23T21:31:55.003Z,19.90
2022-08-23T21:34:23.274Z,19.80
2022-08-23T21:36:52.320Z,19.60
2022-08-23T21:39:21.625Z,19.50
2022-08-23T21:41:49.668Z,19.40
2022-08-23T21:44:19.284Z,19.20
2022-08-23T21:46:48.775Z,19.00
2022-08-23T21:49:17.882Z,18.90
2022-08-23T21:51:47.099Z,18.80
2022-08-23T21:54:15.695Z,18.70
2022-08-23T21:56:45.797Z,18.80
2022-08-23T21:59:16.603Z,18.90
2022-08-23T22:01:44.980Z,18.70
2022-08-23T22:04:14.856Z,18.60
2022-08-23T22:06:44.878Z,18.40
2022-08-23T22:09:16.234Z,18.30
2022-08-23T22:11:48.044Z,18.30
2022-08-23T22:14:20.121Z,18.20
2022-08-23T22:16:49.382Z,18.10
2022-08-23T22:19:23.530Z,18.00
2022-08-23T22:21:52.374Z,18.00
2022-08-23T22:24:25.444Z,17.90
2022-08-23T22:26:56.242Z,17.80
2022-08-23T22:29:24.638Z,17.90
2022-08-23T22:31:52.719Z,18.00
2022-08-23T22:34:20.898Z,17.90
2022-08-23T22:36:52.297Z,17.80
2022-08-23T22:39:21.034Z,17.80
2022-08-23T22:41:48.994Z,17.60
2022-08-23T22:44:18.594Z,17.50
2022-08-23T22:46:46.972Z,17.50
2022-08-23T22:49:15.106Z,17.40
2022-08-23T22:51:43.771Z,17.30
2022-08-23T22:54:14.307Z,17.30
2022-08-23T22:56:44.527Z,17.10
2022-08-23T22:59:13.958Z,17.00
2022-08-23T23:01:47.693Z,17.00
2022-08-23T23:04:17.693Z,17.00
2022-08-23T23:06:46.068Z,17.00
2022-08-23T23:09:14.706Z,17.00
2022-08-23T23:11:43.908Z,17.00
2022-08-23T23:14:12.779Z,16.90
2022-08-23T23:16:41.764Z,16.90
2022-08-23T23:19:28.817Z,16.80
2022-08-23T23:21:58.709Z,16.70
2022-08-23T23:24:29.202Z,16.60
2022-08-23T23:26:57.624Z,16.60
2022-08-23T23:29:26.764Z,16.50
2022-08-23T23:31:55.265Z,16.40
2022-08-23T23:34:26.073Z,16.60
2022-08-23T23:36:56.212Z,16.70
2022-08-23T23:39:24.254Z,16.80
2022-08-23T23:41:52.209Z,16.80
2022-08-23T23:44:24.374Z,16.90
2022-08-23T23:46:58.929Z,16.80
2022-08-23T23:49:32.636Z,16.70
2022-08-23T23:52:01.729Z,16.60
2022-08-23T23:54:29.729Z,16.40
2022-08-23T23:56:57.688Z,16.30
2022-08-23T23:59:26.680Z,16.30
